sensor_id;sensor_type;location;lat;lon;timestamp;temperature;humidity
13802;DHT22;6972;51.518;6.918;2022-10-13T00:06:22;10.80;99.90
13802;DHT22;6972;51.518;6.918;2022-10-13T00:08:48;10.80;99.90
13802;DHT22;6972;51.518;6.918;2022-10-13T00:13:42;10.80;99.90
13802;DHT22;6972;51.518;6.918;2022-10-13T00:16:09;10.80;99.90
13802;DHT22;6972;51.518;6.918;2022-10-13T00:18:35;10.70;99.90
13802;DHT22;6972;51.518;6.918;2022-10-13T00:21:06;10.80;99.90
13802;DHT22;6972;51.518;6.918;2022-10-13T00:23:33;10.70;99.90
13802;DHT22;6972;51.518;6.918;2022-10-13T00:26:05;10.70;99.90
13802;DHT22;6972;51.518;6.918;2022-10-13T00:28:31;10.70;99.90
13802;DHT22;6972;51.518;6.918;2022-10-13T00:30:57;10.80;99.90
13802;DHT22;6972;51.518;6.918;2022-10-13T00:33:23;10.70;99.90
13802;DHT22;6972;51.518;6.918;2022-10-13T00:38:19;10.80;99.90
13802;DHT22;6972;51.518;6.918;2022-10-13T00:43:16;10.80;99.90
13802;DHT22;6972;51.518;6.918;2022-10-13T00:50:39;10.80;99.90
13802;DHT22;6972;51.518;6.918;2022-10-13T00:53:06;10.90;99.90
13802;DHT22;6972;51.518;6.918;2022-10-13T00:55:35;10.90;99.90
13802;DHT22;6972;51.518;6.918;2022-10-13T00:58:02;10.80;99.90
13802;DHT22;6972;51.518;6.918;2022-10-13T01:00:30;10.90;99.90
13802;DHT22;6972;51.518;6.918;2022-10-13T01:05:23;11.00;99.90
13802;DHT22;6972;51.518;6.918;2022-10-13T01:07:50;11.00;99.90
13802;DHT22;6972;51.518;6.918;2022-10-13T01:10:28;11.00;99.90
13802;DHT22;6972;51.518;6.918;2022-10-13T01:12:59;11.20;99.90
13802;DHT22;6972;51.518;6.918;2022-10-13T01:15:59;11.00;99.90
13802;DHT22;6972;51.518;6.918;2022-10-13T01:19:17;11.00;99.90
13802;DHT22;6972;51.518;6.918;2022-10-13T01:21:34;11.00;99.90
13802;DHT22;6972;51.518;6.918;2022-10-13T01:27:11;11.00;99.90
13802;DHT22;6972;51.518;6.918;2022-10-13T01:32:54;10.90;99.90
13802;DHT22;6972;51.518;6.918;2022-10-13T01:38:08;11.00;99.90
13802;DHT22;6972;51.518;6.918;2022-10-13T01:40:45;11.10;99.90
13802;DHT22;6972;51.518;6.918;2022-10-13T01:43:22;11.10;99.90
13802;DHT22;6972;51.518;6.918;2022-10-13T01:46:03;11.10;99.90
13802;DHT22;6972;51.518;6.918;2022-10-13T01:48:33;11.10;99.90
13802;DHT22;6972;51.518;6.918;2022-10-13T01:53:26;11.20;99.90
13802;DHT22;6972;51.518;6.918;2022-10-13T01:55:56;11.10;99.90
13802;DHT22;6972;51.518;6.918;2022-10-13T01:58:24;11.20;99.90
13802;DHT22;6972;51.518;6.918;2022-10-13T02:06:38;11.40;99.90
13802;DHT22;6972;51.518;6.918;2022-10-13T02:09:27;11.40;99.90
13802;DHT22;6972;51.518;6.918;2022-10-13T02:12:26;11.40;99.90
13802;DHT22;6972;51.518;6.918;2022-10-13T02:14:49;11.40;99.90
13802;DHT22;6972;51.518;6.918;2022-10-13T02:17:18;11.40;99.90
13802;DHT22;6972;51.518;6.918;2022-10-13T02:19:46;11.50;99.90
13802;DHT22;6972;51.518;6.918;2022-10-13T02:22:14;11.40;99.90
13802;DHT22;6972;51.518;6.918;2022-10-13T02:24:39;11.60;99.90
13802;DHT22;6972;51.518;6.918;2022-10-13T02:27:05;8.70;99.90
13802;DHT22;6972;51.518;6.918;2022-10-13T02:31:57;11.50;99.90
13802;DHT22;6972;51.518;6.918;2022-10-13T02:36:49;11.70;99.90
13802;DHT22;6972;51.518;6.918;2022-10-13T02:44:08;11.60;99.90
13802;DHT22;6972;51.518;6.918;2022-10-13T02:46:34;11.40;99.90
13802;DHT22;6972;51.518;6.918;2022-10-13T02:58:45;11.70;99.90
13802;DHT22;6972;51.518;6.918;2022-10-13T03:01:13;11.60;99.90
13802;DHT22;6972;51.518;6.918;2022-10-13T03:03:39;11.70;99.90
13802;DHT22;6972;51.518;6.918;2022-10-13T03:06:06;11.60;99.90
13802;DHT22;6972;51.518;6.918;2022-10-13T03:08:33;11.50;99.90
13802;DHT22;6972;51.518;6.918;2022-10-13T03:10:59;11.70;99.90
13802;DHT22;6972;51.518;6.918;2022-10-13T03:15:53;11.70;99.90
13802;DHT22;6972;51.518;6.918;2022-10-13T03:18:19;11.50;99.90
13802;DHT22;6972;51.518;6.918;2022-10-13T03:25:36;11.60;99.90
13802;DHT22;6972;51.518;6.918;2022-10-13T03:37:46;11.80;99.90
13802;DHT22;6972;51.518;6.918;2022-10-13T03:40:13;11.50;99.90
13802;DHT22;6972;51.518;6.918;2022-10-13T03:42:39;11.70;99.90
13802;DHT22;6972;51.518;6.918;2022-10-13T03:45:05;11.70;99.90
13802;DHT22;6972;51.518;6.918;2022-10-13T03:47:31;11.70;99.90
13802;DHT22;6972;51.518;6.918;2022-10-13T03:57:17;11.70;99.90
13802;DHT22;6972;51.518;6.918;2022-10-13T04:04:36;11.70;99.90
13802;DHT22;6972;51.518;6.918;2022-10-13T04:07:02;11.60;99.90
13802;DHT22;6972;51.518;6.918;2022-10-13T04:14:20;11.70;99.90
13802;DHT22;6972;51.518;6.918;2022-10-13T04:16:46;11.90;99.90
13802;DHT22;6972;51.518;6.918;2022-10-13T04:19:14;11.80;99.90
13802;DHT22;6972;51.518;6.918;2022-10-13T04:21:40;11.80;99.90
13802;DHT22;6972;51.518;6.918;2022-10-13T04:24:06;11.80;99.90
13802;DHT22;6972;51.518;6.918;2022-10-13T04:26:34;11.90;99.90
13802;DHT22;6972;51.518;6.918;2022-10-13T04:29:02;11.80;99.90
13802;DHT22;6972;51.518;6.918;2022-10-13T04:31:29;11.90;99.90
13802;DHT22;6972;51.518;6.918;2022-10-13T04:36:21;11.90;99.90
13802;DHT22;6972;51.518;6.918;2022-10-13T04:38:47;11.90;99.90
13802;DHT22;6972;51.518;6.918;2022-10-13T04:41:14;11.80;99.90
13802;DHT22;6972;51.518;6.918;2022-10-13T04:43:39;11.90;99.90
13802;DHT22;6972;51.518;6.918;2022-10-13T04:46:15;11.90;99.90
13802;DHT22;6972;51.518;6.918;2022-10-13T04:48:41;12.00;99.90
13802;DHT22;6972;51.518;6.918;2022-10-13T04:51:15;12.00;99.90
13802;DHT22;6972;51.518;6.918;2022-10-13T04:53:42;12.00;99.90
13802;DHT22;6972;51.518;6.918;2022-10-13T04:56:10;12.10;99.90
13802;DHT22;6972;51.518;6.918;2022-10-13T04:58:37;12.00;99.90
13802;DHT22;6972;51.518;6.918;2022-10-13T05:01:05;11.90;99.90
13802;DHT22;6972;51.518;6.918;2022-10-13T05:03:31;11.90;99.90
13802;DHT22;6972;51.518;6.918;2022-10-13T05:05:57;12.00;99.90
13802;DHT22;6972;51.518;6.918;2022-10-13T05:08:27;12.00;99.90
13802;DHT22;6972;51.518;6.918;2022-10-13T05:11:00;11.90;99.90
13802;DHT22;6972;51.518;6.918;2022-10-13T05:13:28;12.00;99.90
13802;DHT22;6972;51.518;6.918;2022-10-13T05:20:46;11.90;99.90
13802;DHT22;6972;51.518;6.918;2022-10-13T05:23:13;11.80;99.90
13802;DHT22;6972;51.518;6.918;2022-10-13T05:25:39;11.90;99.90
13802;DHT22;6972;51.518;6.918;2022-10-13T05:28:06;11.80;99.90
13802;DHT22;6972;51.518;6.918;2022-10-13T05:32:57;11.80;99.90
13802;DHT22;6972;51.518;6.918;2022-10-13T05:35:24;11.80;99.90
13802;DHT22;6972;51.518;6.918;2022-10-13T05:37:51;11.70;99.90
13802;DHT22;6972;51.518;6.918;2022-10-13T05:42:46;11.90;99.90
13802;DHT22;6972;51.518;6.918;2022-10-13T05:45:11;11.90;99.90
13802;DHT22;6972;51.518;6.918;2022-10-13T05:50:03;11.90;99.90
13802;DHT22;6972;51.518;6.918;2022-10-13T05:52:31;11.80;99.90
13802;DHT22;6972;51.518;6.918;2022-10-13T05:55:00;11.80;99.90
13802;DHT22;6972;51.518;6.918;2022-10-13T05:57:39;11.80;99.90
13802;DHT22;6972;51.518;6.918;2022-10-13T06:00:08;11.70;99.90
13802;DHT22;6972;51.518;6.918;2022-10-13T06:02:58;11.80;99.90
13802;DHT22;6972;51.518;6.918;2022-10-13T06:10:20;12.00;99.90
13802;DHT22;6972;51.518;6.918;2022-10-13T06:12:46;11.90;99.90
13802;DHT22;6972;51.518;6.918;2022-10-13T06:20:05;11.80;99.90
13802;DHT22;6972;51.518;6.918;2022-10-13T06:22:32;11.80;99.90
13802;DHT22;6972;51.518;6.918;2022-10-13T06:24:57;11.80;99.90
13802;DHT22;6972;51.518;6.918;2022-10-13T06:27:23;11.80;99.90
13802;DHT22;6972;51.518;6.918;2022-10-13T06:41:59;12.00;99.90
13802;DHT22;6972;51.518;6.918;2022-10-13T06:59:01;12.00;99.90
13802;DHT22;6972;51.518;6.918;2022-10-13T07:11:13;12.30;99.90
13802;DHT22;6972;51.518;6.918;2022-10-13T07:13:40;12.20;99.90
13802;DHT22;6972;51.518;6.918;2022-10-13T07:23:26;12.40;99.90
13802;DHT22;6972;51.518;6.918;2022-10-13T07:25:52;12.40;99.90
13802;DHT22;6972;51.518;6.918;2022-10-13T07:28:19;12.70;99.90
13802;DHT22;6972;51.518;6.918;2022-10-13T07:35:37;12.50;99.90
13802;DHT22;6972;51.518;6.918;2022-10-13T07:38:05;12.50;99.90
13802;DHT22;6972;51.518;6.918;2022-10-13T07:45:24;12.50;99.90
13802;DHT22;6972;51.518;6.918;2022-10-13T07:47:50;12.70;99.90
13802;DHT22;6972;51.518;6.918;2022-10-13T07:50:15;12.70;99.90
13802;DHT22;6972;51.518;6.918;2022-10-13T07:55:08;13.00;99.90
13802;DHT22;6972;51.518;6.918;2022-10-13T07:57:33;13.00;99.90
13802;DHT22;6972;51.518;6.918;2022-10-13T08:00:00;13.30;99.90
13802;DHT22;6972;51.518;6.918;2022-10-13T08:07:18;13.50;99.90
13802;DHT22;6972;51.518;6.918;2022-10-13T08:12:11;13.60;99.90
13802;DHT22;6972;51.518;6.918;2022-10-13T08:19:28;13.80;99.90
13802;DHT22;6972;51.518;6.918;2022-10-13T08:26:49;13.80;99.90
13802;DHT22;6972;51.518;6.918;2022-10-13T08:29:16;14.00;99.90
13802;DHT22;6972;51.518;6.918;2022-10-13T08:31:42;14.00;99.90
13802;DHT22;6972;51.518;6.918;2022-10-13T08:39:02;13.90;99.90
13802;DHT22;6972;51.518;6.918;2022-10-13T08:41:30;14.00;99.90
13802;DHT22;6972;51.518;6.918;2022-10-13T08:44:11;14.20;99.90
13802;DHT22;6972;51.518;6.918;2022-10-13T08:46:56;14.10;99.90
13802;DHT22;6972;51.518;6.918;2022-10-13T08:51:50;14.30;99.90
13802;DHT22;6972;51.518;6.918;2022-10-13T08:54:18;14.10;99.90
13802;DHT22;6972;51.518;6.918;2022-10-13T08:59:15;14.00;99.90
13802;DHT22;6972;51.518;6.918;2022-10-13T09:01:46;14.10;99.90
13802;DHT22;6972;51.518;6.918;2022-10-13T09:04:33;14.10;99.90
13802;DHT22;6972;51.518;6.918;2022-10-13T09:07:19;14.10;99.90
13802;DHT22;6972;51.518;6.918;2022-10-13T09:09:50;14.30;99.90
13802;DHT22;6972;51.518;6.918;2022-10-13T09:12:16;14.30;99.90
13802;DHT22;6972;51.518;6.918;2022-10-13T09:15:03;14.50;99.90
13802;DHT22;6972;51.518;6.918;2022-10-13T09:17:31;14.70;99.90
13802;DHT22;6972;51.518;6.918;2022-10-13T09:22:36;14.90;99.90
13802;DHT22;6972;51.518;6.918;2022-10-13T09:27:50;15.20;99.90
13802;DHT22;6972;51.518;6.918;2022-10-13T09:30:27;15.30;99.90
13802;DHT22;6972;51.518;6.918;2022-10-13T09:35:40;15.40;99.90
13802;DHT22;6972;51.518;6.918;2022-10-13T09:38:19;15.50;99.90
13802;DHT22;6972;51.518;6.918;2022-10-13T09:41:04;15.60;99.90
13802;DHT22;6972;51.518;6.918;2022-10-13T09:45:57;15.60;99.90
13802;DHT22;6972;51.518;6.918;2022-10-13T09:48:29;15.70;99.90
13802;DHT22;6972;51.518;6.918;2022-10-13T09:50:57;15.80;99.90
13802;DHT22;6972;51.518;6.918;2022-10-13T09:53:47;15.90;99.90
13802;DHT22;6972;51.518;6.918;2022-10-13T09:56:21;15.90;99.90
13802;DHT22;6972;51.518;6.918;2022-10-13T10:01:29;16.00;99.90
13802;DHT22;6972;51.518;6.918;2022-10-13T10:03:56;16.00;99.90
13802;DHT22;6972;51.518;6.918;2022-10-13T10:06:22;16.00;99.90
13802;DHT22;6972;51.518;6.918;2022-10-13T10:09:26;15.90;99.90
13802;DHT22;6972;51.518;6.918;2022-10-13T10:11:54;15.90;99.90
13802;DHT22;6972;51.518;6.918;2022-10-13T10:14:31;16.10;99.90
13802;DHT22;6972;51.518;6.918;2022-10-13T10:25:28;16.00;99.90
13802;DHT22;6972;51.518;6.918;2022-10-13T10:31:20;16.30;99.90
13802;DHT22;6972;51.518;6.918;2022-10-13T10:34:25;16.30;99.90
13802;DHT22;6972;51.518;6.918;2022-10-13T10:39:43;16.40;99.90
13802;DHT22;6972;51.518;6.918;2022-10-13T10:44:41;16.60;99.90
13802;DHT22;6972;51.518;6.918;2022-10-13T10:47:25;16.70;99.90
13802;DHT22;6972;51.518;6.918;2022-10-13T10:50:00;16.70;99.90
13802;DHT22;6972;51.518;6.918;2022-10-13T10:52:42;16.70;99.90
13802;DHT22;6972;51.518;6.918;2022-10-13T10:55:26;16.90;99.90
13802;DHT22;6972;51.518;6.918;2022-10-13T11:03:36;17.00;99.90
13802;DHT22;6972;51.518;6.918;2022-10-13T11:16:33;17.30;99.90
13802;DHT22;6972;51.518;6.918;2022-10-13T11:19:04;17.20;99.90
13802;DHT22;6972;51.518;6.918;2022-10-13T12:03:53;17.00;99.90
13802;DHT22;6972;51.518;6.918;2022-10-13T12:08:47;16.80;99.90
13802;DHT22;6972;51.518;6.918;2022-10-13T12:11:24;16.70;99.90
13802;DHT22;6972;51.518;6.918;2022-10-13T12:13:53;16.90;99.90
13802;DHT22;6972;51.518;6.918;2022-10-13T12:16:20;17.20;99.90
13802;DHT22;6972;51.518;6.918;2022-10-13T12:18:46;16.70;99.90
13802;DHT22;6972;51.518;6.918;2022-10-13T12:23:38;16.50;99.90
13802;DHT22;6972;51.518;6.918;2022-10-13T12:26:04;16.10;99.90
13802;DHT22;6972;51.518;6.918;2022-10-13T12:28:49;16.10;99.90
13802;DHT22;6972;51.518;6.918;2022-10-13T12:31:39;16.20;99.90
13802;DHT22;6972;51.518;6.918;2022-10-13T12:37:03;16.00;99.90
13802;DHT22;6972;51.518;6.918;2022-10-13T12:39:30;16.00;99.90
13802;DHT22;6972;51.518;6.918;2022-10-13T12:41:58;15.90;99.90
13802;DHT22;6972;51.518;6.918;2022-10-13T12:44:29;15.80;99.90
13802;DHT22;6972;51.518;6.918;2022-10-13T12:46:58;15.80;99.90
13802;DHT22;6972;51.518;6.918;2022-10-13T12:49:32;15.90;99.90
13802;DHT22;6972;51.518;6.918;2022-10-13T12:52:18;15.90;99.90
13802;DHT22;6972;51.518;6.918;2022-10-13T12:54:53;16.00;99.90
13802;DHT22;6972;51.518;6.918;2022-10-13T12:59:46;16.20;99.90
13802;DHT22;6972;51.518;6.918;2022-10-13T13:02:19;16.30;99.90
13802;DHT22;6972;51.518;6.918;2022-10-13T13:07:31;16.70;99.90
13802;DHT22;6972;51.518;6.918;2022-10-13T13:10:17;16.50;99.90
13802;DHT22;6972;51.518;6.918;2022-10-13T13:12:43;16.60;99.90
13802;DHT22;6972;51.518;6.918;2022-10-13T13:17:51;16.60;99.90
13802;DHT22;6972;51.518;6.918;2022-10-13T13:20:21;16.40;99.90
13802;DHT22;6972;51.518;6.918;2022-10-13T13:22:49;16.30;99.90
13802;DHT22;6972;51.518;6.918;2022-10-13T13:25:15;16.40;99.90
13802;DHT22;6972;51.518;6.918;2022-10-13T13:27:41;16.30;99.90
13802;DHT22;6972;51.518;6.918;2022-10-13T13:30:15;16.20;99.90
13802;DHT22;6972;51.518;6.918;2022-10-13T13:35:07;16.20;99.90
13802;DHT22;6972;51.518;6.918;2022-10-13T13:37:40;16.20;99.90
13802;DHT22;6972;51.518;6.918;2022-10-13T13:40:14;16.20;99.90
13802;DHT22;6972;51.518;6.918;2022-10-13T13:45:06;16.00;99.90
13802;DHT22;6972;51.518;6.918;2022-10-13T13:54:51;15.80;99.90
13802;DHT22;6972;51.518;6.918;2022-10-13T13:57:17;15.90;99.90
13802;DHT22;6972;51.518;6.918;2022-10-13T14:02:18;15.80;99.90
13802;DHT22;6972;51.518;6.918;2022-10-13T14:07:11;15.80;99.90
13802;DHT22;6972;51.518;6.918;2022-10-13T14:14:30;15.50;99.90
13802;DHT22;6972;51.518;6.918;2022-10-13T14:19:22;15.40;99.90
13802;DHT22;6972;51.518;6.918;2022-10-13T14:36:24;15.20;99.90
13802;DHT22;6972;51.518;6.918;2022-10-13T14:38:50;15.20;99.90
13802;DHT22;6972;51.518;6.918;2022-10-13T14:43:42;15.40;99.90
13802;DHT22;6972;51.518;6.918;2022-10-13T14:48:35;15.50;99.90
13802;DHT22;6972;51.518;6.918;2022-10-13T14:51:05;15.30;99.90
13802;DHT22;6972;51.518;6.918;2022-10-13T14:53:36;15.50;99.90
13802;DHT22;6972;51.518;6.918;2022-10-13T14:56:03;15.40;99.90
13802;DHT22;6972;51.518;6.918;2022-10-13T14:58:36;15.30;99.90
13802;DHT22;6972;51.518;6.918;2022-10-13T15:01:02;15.30;99.90
13802;DHT22;6972;51.518;6.918;2022-10-13T15:03:28;15.40;99.90
13802;DHT22;6972;51.518;6.918;2022-10-13T15:05:53;15.50;99.90
13802;DHT22;6972;51.518;6.918;2022-10-13T15:08:19;15.10;99.90
13802;DHT22;6972;51.518;6.918;2022-10-13T15:20:29;14.90;99.90
13802;DHT22;6972;51.518;6.918;2022-10-13T15:37:31;15.10;99.90
13802;DHT22;6972;51.518;6.918;2022-10-13T15:42:22;15.10;99.90
13802;DHT22;6972;51.518;6.918;2022-10-13T15:47:14;15.10;99.90
13802;DHT22;6972;51.518;6.918;2022-10-13T16:21:22;14.70;99.90
13802;DHT22;6972;51.518;6.918;2022-10-13T16:23:50;14.70;99.90
13802;DHT22;6972;51.518;6.918;2022-10-13T16:26:16;14.60;99.90
13802;DHT22;6972;51.518;6.918;2022-10-13T16:31:10;14.60;99.90
13802;DHT22;6972;51.518;6.918;2022-10-13T16:33:40;14.60;99.90
13802;DHT22;6972;51.518;6.918;2022-10-13T16:36:09;14.50;99.90
13802;DHT22;6972;51.518;6.918;2022-10-13T16:38:35;14.50;99.90
13802;DHT22;6972;51.518;6.918;2022-10-13T16:41:05;14.50;99.90
13802;DHT22;6972;51.518;6.918;2022-10-13T16:43:32;14.70;99.90
13802;DHT22;6972;51.518;6.918;2022-10-13T16:45:59;14.50;99.90
13802;DHT22;6972;51.518;6.918;2022-10-13T16:48:26;14.50;99.90
13802;DHT22;6972;51.518;6.918;2022-10-13T16:50:51;14.50;99.90
13802;DHT22;6972;51.518;6.918;2022-10-13T16:58:09;14.50;99.90
13802;DHT22;6972;51.518;6.918;2022-10-13T17:00:36;14.40;99.90
13802;DHT22;6972;51.518;6.918;2022-10-13T17:03:03;14.30;99.90
13802;DHT22;6972;51.518;6.918;2022-10-13T17:17:39;14.40;99.90
13802;DHT22;6972;51.518;6.918;2022-10-13T17:22:32;14.40;99.90
13802;DHT22;6972;51.518;6.918;2022-10-13T17:29:53;14.20;99.90
13802;DHT22;6972;51.518;6.918;2022-10-13T17:32:20;14.10;99.90
13802;DHT22;6972;51.518;6.918;2022-10-13T17:34:45;14.10;99.90
13802;DHT22;6972;51.518;6.918;2022-10-13T17:37:11;14.20;99.90
13802;DHT22;6972;51.518;6.918;2022-10-13T17:39:37;14.20;99.90
13802;DHT22;6972;51.518;6.918;2022-10-13T17:42:04;14.30;99.90
13802;DHT22;6972;51.518;6.918;2022-10-13T17:44:29;14.30;99.90
13802;DHT22;6972;51.518;6.918;2022-10-13T17:51:50;14.10;99.90
13802;DHT22;6972;51.518;6.918;2022-10-13T17:54:16;14.20;99.90
13802;DHT22;6972;51.518;6.918;2022-10-13T18:01:36;14.00;99.90
13802;DHT22;6972;51.518;6.918;2022-10-13T18:04:04;14.10;99.90
13802;DHT22;6972;51.518;6.918;2022-10-13T18:06:34;14.10;99.90
13802;DHT22;6972;51.518;6.918;2022-10-13T18:09:14;14.10;99.90
13802;DHT22;6972;51.518;6.918;2022-10-13T18:11:42;14.20;99.90
13802;DHT22;6972;51.518;6.918;2022-10-13T18:14:07;14.00;99.90
13802;DHT22;6972;51.518;6.918;2022-10-13T18:16:34;14.10;99.90
13802;DHT22;6972;51.518;6.918;2022-10-13T18:23:57;14.10;99.90
13802;DHT22;6972;51.518;6.918;2022-10-13T18:26:25;14.10;99.90
13802;DHT22;6972;51.518;6.918;2022-10-13T18:28:51;14.20;99.90
13802;DHT22;6972;51.518;6.918;2022-10-13T18:31:18;14.10;99.90
13802;DHT22;6972;51.518;6.918;2022-10-13T18:36:15;14.10;99.90
13802;DHT22;6972;51.518;6.918;2022-10-13T18:41:09;14.10;99.90
13802;DHT22;6972;51.518;6.918;2022-10-13T18:43:35;14.00;99.90
13802;DHT22;6972;51.518;6.918;2022-10-13T18:46:02;15.80;99.90
13802;DHT22;6972;51.518;6.918;2022-10-13T18:53:21;14.00;99.90
13802;DHT22;6972;51.518;6.918;2022-10-13T19:03:05;14.00;99.90
13802;DHT22;6972;51.518;6.918;2022-10-13T19:05:36;14.10;99.90
13802;DHT22;6972;51.518;6.918;2022-10-13T19:08:02;13.90;99.90
13802;DHT22;6972;51.518;6.918;2022-10-13T19:10:28;14.00;99.90
13802;DHT22;6972;51.518;6.918;2022-10-13T19:12:53;13.80;99.90
13802;DHT22;6972;51.518;6.918;2022-10-13T19:15:19;13.90;99.90
13802;DHT22;6972;51.518;6.918;2022-10-13T19:17:46;14.00;99.90
13802;DHT22;6972;51.518;6.918;2022-10-13T19:20:23;13.80;99.90
13802;DHT22;6972;51.518;6.918;2022-10-13T19:25:15;14.00;99.90
13802;DHT22;6972;51.518;6.918;2022-10-13T19:27:42;13.90;99.90
13802;DHT22;6972;51.518;6.918;2022-10-13T19:30:08;14.00;99.90
13802;DHT22;6972;51.518;6.918;2022-10-13T19:32:37;13.90;99.90
13802;DHT22;6972;51.518;6.918;2022-10-13T19:35:04;14.00;99.90
13802;DHT22;6972;51.518;6.918;2022-10-13T19:37:34;13.90;99.90
13802;DHT22;6972;51.518;6.918;2022-10-13T19:42:28;14.00;99.90
13802;DHT22;6972;51.518;6.918;2022-10-13T19:44:53;13.90;99.90
13802;DHT22;6972;51.518;6.918;2022-10-13T19:59:29;13.90;99.90
13802;DHT22;6972;51.518;6.918;2022-10-13T20:04:21;13.60;99.90
13802;DHT22;6972;51.518;6.918;2022-10-13T20:06:50;13.70;99.90
13802;DHT22;6972;51.518;6.918;2022-10-13T20:09:17;13.60;99.90
13802;DHT22;6972;51.518;6.918;2022-10-13T20:11:44;13.70;99.90
13802;DHT22;6972;51.518;6.918;2022-10-13T20:19:03;13.70;99.90
13802;DHT22;6972;51.518;6.918;2022-10-13T20:21:29;13.70;99.90
13802;DHT22;6972;51.518;6.918;2022-10-13T20:23:55;13.70;99.90
13802;DHT22;6972;51.518;6.918;2022-10-13T20:26:22;13.70;99.90
13802;DHT22;6972;51.518;6.918;2022-10-13T20:28:48;13.90;99.90
13802;DHT22;6972;51.518;6.918;2022-10-13T20:31:16;13.80;99.90
13802;DHT22;6972;51.518;6.918;2022-10-13T20:33:42;13.70;99.90
13802;DHT22;6972;51.518;6.918;2022-10-13T20:36:11;13.80;99.90
13802;DHT22;6972;51.518;6.918;2022-10-13T20:38:37;13.70;99.90
13802;DHT22;6972;51.518;6.918;2022-10-13T20:43:32;13.70;99.90
13802;DHT22;6972;51.518;6.918;2022-10-13T20:46:00;13.60;99.90
13802;DHT22;6972;51.518;6.918;2022-10-13T20:48:28;13.70;99.90
13802;DHT22;6972;51.518;6.918;2022-10-13T20:50:58;13.80;99.90
13802;DHT22;6972;51.518;6.918;2022-10-13T20:53:24;13.80;99.90
13802;DHT22;6972;51.518;6.918;2022-10-13T20:56:00;13.80;99.90
13802;DHT22;6972;51.518;6.918;2022-10-13T20:58:28;13.70;99.90
13802;DHT22;6972;51.518;6.918;2022-10-13T21:03:22;13.90;99.90
13802;DHT22;6972;51.518;6.918;2022-10-13T21:05:49;13.80;99.90
13802;DHT22;6972;51.518;6.918;2022-10-13T21:08:15;13.80;99.90
13802;DHT22;6972;51.518;6.918;2022-10-13T21:10:42;13.70;99.90
13802;DHT22;6972;51.518;6.918;2022-10-13T21:15:39;13.80;99.90
13802;DHT22;6972;51.518;6.918;2022-10-13T21:18:05;13.70;99.90
13802;DHT22;6972;51.518;6.918;2022-10-13T21:20:32;13.70;99.90
13802;DHT22;6972;51.518;6.918;2022-10-13T21:22:59;13.80;99.90
13802;DHT22;6972;51.518;6.918;2022-10-13T21:25:25;13.60;99.90
13802;DHT22;6972;51.518;6.918;2022-10-13T21:27:51;13.50;99.90
13802;DHT22;6972;51.518;6.918;2022-10-13T21:30:17;13.50;99.90
13802;DHT22;6972;51.518;6.918;2022-10-13T21:35:09;13.40;99.90
13802;DHT22;6972;51.518;6.918;2022-10-13T21:37:36;13.50;99.90
13802;DHT22;6972;51.518;6.918;2022-10-13T21:40:03;13.60;99.90
13802;DHT22;6972;51.518;6.918;2022-10-13T21:42:32;13.50;99.90
13802;DHT22;6972;51.518;6.918;2022-10-13T21:44:58;13.60;99.90
13802;DHT22;6972;51.518;6.918;2022-10-13T21:47:28;13.70;99.90
13802;DHT22;6972;51.518;6.918;2022-10-13T21:52:20;13.40;99.90
13802;DHT22;6972;51.518;6.918;2022-10-13T21:54:49;13.50;99.90
13802;DHT22;6972;51.518;6.918;2022-10-13T21:57:15;13.50;99.90
13802;DHT22;6972;51.518;6.918;2022-10-13T21:59:41;13.60;99.90
13802;DHT22;6972;51.518;6.918;2022-10-13T22:06:58;13.60;99.90
13802;DHT22;6972;51.518;6.918;2022-10-13T22:09:24;13.50;99.90
13802;DHT22;6972;51.518;6.918;2022-10-13T22:11:50;13.50;99.90
13802;DHT22;6972;51.518;6.918;2022-10-13T22:16:44;13.50;99.90
13802;DHT22;6972;51.518;6.918;2022-10-13T22:19:10;13.60;99.90
13802;DHT22;6972;51.518;6.918;2022-10-13T22:21:39;13.60;99.90
13802;DHT22;6972;51.518;6.918;2022-10-13T22:24:06;13.50;99.90
13802;DHT22;6972;51.518;6.918;2022-10-13T22:26:35;13.40;99.90
13802;DHT22;6972;51.518;6.918;2022-10-13T22:29:02;13.50;99.90
13802;DHT22;6972;51.518;6.918;2022-10-13T22:31:28;13.60;99.90
13802;DHT22;6972;51.518;6.918;2022-10-13T22:33:55;13.50;99.90
13802;DHT22;6972;51.518;6.918;2022-10-13T22:36:22;13.60;99.90
13802;DHT22;6972;51.518;6.918;2022-10-13T22:38:49;13.40;99.90
13802;DHT22;6972;51.518;6.918;2022-10-13T22:41:16;13.60;99.90
13802;DHT22;6972;51.518;6.918;2022-10-13T22:43:42;13.50;99.90
13802;DHT22;6972;51.518;6.918;2022-10-13T22:46:11;13.50;99.90
13802;DHT22;6972;51.518;6.918;2022-10-13T22:51:06;13.50;99.90
13802;DHT22;6972;51.518;6.918;2022-10-13T22:53:33;13.50;99.90
13802;DHT22;6972;51.518;6.918;2022-10-13T22:55:59;13.50;99.90
13802;DHT22;6972;51.518;6.918;2022-10-13T22:58:25;13.60;99.90
13802;DHT22;6972;51.518;6.918;2022-10-13T23:00:51;13.50;99.90
13802;DHT22;6972;51.518;6.918;2022-10-13T23:03:18;13.50;99.90
13802;DHT22;6972;51.518;6.918;2022-10-13T23:05:47;13.50;99.90
13802;DHT22;6972;51.518;6.918;2022-10-13T23:15:40;16.00;99.90
13802;DHT22;6972;51.518;6.918;2022-10-13T23:20:40;13.50;99.90
13802;DHT22;6972;51.518;6.918;2022-10-13T23:23:05;13.60;99.90
13802;DHT22;6972;51.518;6.918;2022-10-13T23:25:35;13.50;99.90
13802;DHT22;6972;51.518;6.918;2022-10-13T23:28:01;13.60;99.90
13802;DHT22;6972;51.518;6.918;2022-10-13T23:30:27;13.40;99.90
13802;DHT22;6972;51.518;6.918;2022-10-13T23:32:53;13.50;99.90
13802;DHT22;6972;51.518;6.918;2022-10-13T23:40:11;13.60;99.90
13802;DHT22;6972;51.518;6.918;2022-10-13T23:45:04;13.50;99.90
13802;DHT22;6972;51.518;6.918;2022-10-13T23:57:16;13.60;99.90
